Terminal Aerodrome Forecast
Issued by NWS Blacksburg, VA

Current Version | Previous Version | Graphics & Text | Print | Product List | Glossary On
Versions: 1 2 3 4 5 6 7 8 9 10 11 12 13 14 15 16 17 18 19 20 21 22 23 24 25 26 27 28 29
000
FTUS41 KRNK 062339
TAFBLF
TAF
KBLF 062339Z 0700/0724 26006KT P6SM BKN200
     FM070600 VRB04KT P6SM SCT250
     FM071300 29006KT P6SM SCT250
     FM072200 23007KT P6SM SCT100 BKN250=

USA.gov is the U.S. government's official web portal to all federal, state and local government web resources and services.